Latest Weather Observations for Jandakot

IDW60801

Issued at 10:35 pm WST Tuesday 21 October 2014 (issued every 30 minutes, with the page automatically refreshed every 10 minutes)

About weather observations | Map of weather stations | Latest weather observations for WA | Other Formats
Station Details ID: 009172 Name: JANDAKOT AERO Lat: -32.10 Lon: 115.88 Height: 30.0 m
Data from the previous 72 hours. | See also: Recent months at Jandakot
Date/Time
WST
Temp
°C
App
Temp
°C
Dew
Point
Rel
Hum
%
Delta-T
°C
Wind Press
QNH
hPa
Press
MSL
hPa
Rain
since 9 am
mm
Dir
 
Spd
km/h
Gust
km/h
Spd
kts
Gust
kts
21/10:30pm 14.1 12.8 11.3 83 1.5 SSE 9 11 5 6 1017.7 1017.7 0.0
21/10:00pm 15.1 13.5 11.6 79 1.9 SSE 11 15 6 8 1018.3 1018.3 0.0
21/09:30pm 15.9 13.6 11.6 75 2.3 S 15 19 8 10 1019.0 1019.0 0.0
21/09:00pm 16.4 14.1 11.6 73 2.6 S 15 19 8 10 1019.5 1019.5 0.0
21/08:30pm 16.9 15.0 11.8 72 2.8 S 13 17 7 9 1019.8 1019.8 0.0
21/08:00pm 17.6 15.8 12.1 70 3.0 SSE 13 19 7 10 1019.8 1019.8 0.0
21/07:30pm 18.3 16.6 12.3 68 3.3 S 13 17 7 9 1019.9 1019.9 0.0
21/07:00pm 18.6 16.9 12.5 67 3.4 S 13 17 7 9 1019.8 1019.8 0.0
21/06:30pm 19.6 17.8 12.2 62 4.1 S 13 17 7 9 1019.8 1019.8 0.0
21/06:00pm 21.0 19.1 11.8 55 5.1 SSW 13 17 7 9 1019.5 1019.5 0.0
21/05:30pm 21.8 19.5 11.6 52 5.7 S 15 20 8 11 1019.2 1019.2 0.0
21/05:00pm 22.4 19.9 11.0 48 6.3 SSW 15 20 8 11 1019.3 1019.3 0.0
21/04:30pm 22.7 19.1 10.7 46 6.6 S 20 24 11 13 1019.3 1019.3 0.0
21/04:00pm 23.3 19.9 11.3 46 6.7 SW 20 28 11 15 1019.3 1019.3 0.0
21/03:30pm 22.6 18.8 11.0 48 6.4 SW 22 28 12 15 1019.5 1019.5 0.0
21/03:00pm 23.1 19.6 11.0 46 6.7 SW 20 24 11 13 1019.8 1019.8 0.0
21/02:30pm 23.4 20.0 10.7 44 7.0 WSW 19 26 10 14 1020.0 1020.0 0.0
21/02:00pm 22.7 19.3 10.5 46 6.7 WSW 19 28 10 15 1020.4 1020.4 0.0
21/01:30pm 23.1 19.6 10.8 45 6.8 WSW 20 28 11 15 1020.8 1020.8 0.0
21/01:00pm 22.9 21.1 7.8 38 7.9 W 7 15 4 8 1021.1 1021.1 0.0
21/12:30pm 22.6 20.8 7.9 39 7.7 NW 7 13 4 7 1021.4 1021.4 0.0
21/12:00pm 21.8 19.7 8.2 41 7.1 N 9 17 5 9 1021.4 1021.4 0.0
21/11:30am 21.1 19.3 9.5 47 6.2 N 9 20 5 11 1021.6 1021.6 0.0
21/11:00am 20.4 17.8 9.2 48 5.9 NE 13 20 7 11 1021.9 1021.9 0.0
21/10:30am 20.3 17.9 10.0 51 5.5 E 13 24 7 13 1022.4 1022.4 0.0
21/10:00am 19.3 17.2 9.7 53 5.1 S 11 17 6 9 1022.7 1022.7 0.0
21/09:30am 18.2 15.8 9.9 58 4.4 SE 13 20 7 11 1023.0 1023.0 0.0
21/09:00am 17.7 16.0 9.7 59 4.2 ESE 9 17 5 9 1023.0 1023.0 0.0
21/08:30am 17.3 15.1 10.7 65 3.5 E 13 17 7 9 1022.9 1022.9 0.0
21/08:00am 15.8 14.1 11.1 73 2.5 ESE 11 15 6 8 1022.8 1022.8 0.0
21/07:30am 14.4 13.1 11.4 82 1.6 SE 9 11 5 6 1022.6 1022.6 0.0
21/07:00am 12.4 11.4 10.9 90 0.8 ESE 7 11 4 6 1022.4 1022.4 0.0
21/06:30am 10.3 8.9 9.5 95 0.4 SE 7 9 4 5 1022.3 1022.3 0.0
21/06:00am 7.7 5.9 7.3 97 0.2 ESE 6 7 3 4 1022.1 1022.1 0.0
21/05:30am 6.1 3.2 4.9 92 0.5 ESE 9 11 5 6 1021.9 1021.9 0.0
21/05:00am 7.2 5.7 6.8 97 0.2 ESE 4 6 2 3 1021.7 1021.7 0.0
21/04:30am 8.0 6.1 7.4 96 0.3 ESE 7 9 4 5 1021.2 1021.2 0.0
21/04:00am 6.7 4.6 5.6 93 0.5 SE 6 9 3 5 1020.9 1020.9 0.0
21/03:30am 7.2 5.2 6.1 93 0.5 SE 6 7 3 4 1020.8 1020.8 0.0
21/03:00am 7.1 5.5 6.2 94 0.4 SE 4 6 2 3 1020.7 1020.7 0.0
21/02:30am 6.9 4.8 6.0 94 0.4 SE 6 6 3 3 1020.5 1020.5 0.0
21/02:00am 7.6 5.7 6.5 93 0.5 SE 6 6 3 3 1020.5 1020.5 0.0
21/01:30am 8.0 6.5 6.9 93 0.5 SE 4 6 2 3 1020.4 1020.4 0.0
21/01:00am 7.6 6.8 6.5 93 0.5 CALM 0 0 0 0 1020.4 1020.4 0.0
21/12:30am 8.2 6.4 7.1 93 0.5 SE 6 7 3 4 1020.6 1020.6 0.0
21/12:00am 8.6 8.0 7.5 93 0.5 S 0 0 0 0 1020.9 1020.9 0.0
 
Date/Time
WST
Temp
°C
App
Temp
°C
Dew
Point
Rel
Hum
%
Delta-T
°C
Wind Press
QNH
hPa
Press
MSL
hPa
Rain
since 9 am
mm
Dir
 
Spd
km/h
Gust
km/h
Spd
kts
Gust
kts
20/11:30pm 10.0 9.4 8.8 92 0.6 S 2 4 1 2 1020.8 1020.8 0.0
20/11:00pm 10.0 8.6 8.8 92 0.6 S 6 6 3 3 1020.9 1020.9 0.0
20/10:30pm 11.1 9.7 9.5 90 0.8 SE 7 7 4 4 1021.0 1021.0 0.0
20/10:00pm 11.6 10.3 9.8 89 0.9 SE 7 9 4 5 1021.1 1021.1 0.0
20/09:30pm 11.9 10.5 9.7 86 1.1 SSE 7 9 4 5 1021.3 1021.3 0.0
20/09:00pm 13.4 12.4 10.3 81 1.6 S 6 7 3 4 1021.1 1021.1 0.0
20/08:30pm 15.0 13.9 10.6 75 2.3 S 7 9 4 5 1021.2 1021.2 0.0
20/08:00pm 15.5 14.0 10.4 71 2.7 SSW 9 13 5 7 1021.1 1021.1 0.0
20/07:30pm 16.2 13.9 10.5 69 3.0 SSW 13 17 7 9 1020.8 1020.8 0.0
20/07:00pm 16.7 14.1 10.7 67 3.2 SSW 15 22 8 12 1020.6 1020.6 0.0
20/06:30pm 17.0 13.7 10.8 67 3.3 SSW 19 28 10 15 1020.2 1020.2 0.0
20/06:00pm 17.4 14.0 11.3 67 3.3 SSW 20 28 11 15 1019.8 1019.8 0.0
20/05:30pm 17.9 14.8 11.5 66 3.5 SW 19 26 10 14 1019.7 1019.7 0.0
20/05:00pm 19.8 16.8 11.9 60 4.4 WSW 19 28 10 15 1019.6 1019.6 0.0
20/04:30pm 18.9 15.1 11.2 61 4.2 SW 22 32 12 17 1019.6 1019.6 0.0
20/04:00pm 19.0 14.8 11.1 60 4.3 SW 24 33 13 18 1019.2 1019.2 0.0
20/03:30pm 18.9 15.5 11.2 61 4.2 SW 20 32 11 17 1018.9 1018.9 0.0
20/03:00pm 19.8 15.5 10.8 56 4.9 WSW 24 32 13 17 1019.0 1019.0 0.0
20/02:30pm 19.5 14.8 10.6 56 4.8 WSW 26 37 14 20 1018.7 1018.7 0.0
20/02:00pm 20.2 15.4 10.2 52 5.4 WSW 26 35 14 19 1018.6 1018.6 0.0
20/01:30pm 21.0 16.9 11.4 54 5.3 SW 24 32 13 17 1018.6 1018.6 0.0
20/01:00pm 21.0 16.8 11.0 52 5.5 WSW 24 41 13 22 1018.6 1018.6 0.0
20/12:30pm 20.5 15.6 11.2 55 5.1 WSW 28 39 15 21 1018.4 1018.4 0.0
20/12:00pm 20.0 15.9 11.3 57 4.8 SW 24 32 13 17 1018.1 1018.1 0.0
20/11:30am 19.7 15.4 10.9 57 4.8 WSW 24 33 13 18 1018.2 1018.2 0.0
20/11:00am 19.7 16.4 11.5 59 4.5 SW 20 32 11 17 1018.2 1018.2 0.0
20/10:30am 18.9 16.2 11.6 62 4.0 SW 17 22 9 12 1018.3 1018.3 0.0
20/10:00am 17.9 15.4 11.1 64 3.7 WSW 15 26 8 14 1018.3 1018.3 0.0
20/09:30am 18.5 15.3 11.1 62 4.0 WSW 19 24 10 13 1018.3 1018.3 0.0
20/09:00am 17.3 14.0 10.8 65 3.5 SSW 19 22 10 12 1018.5 1018.5 5.2
20/08:30am 16.8 13.8 10.8 67 3.2 SSW 17 22 9 12 1018.3 1018.3 5.2
20/08:00am 16.2 14.4 11.0 71 2.8 S 11 15 6 8 1018.4 1018.4 5.2
20/07:30am 15.0 14.1 10.8 76 2.2 S 6 13 3 7 1018.1 1018.1 5.2
20/07:00am 14.0 13.5 10.6 80 1.8 ESE 4 9 2 5 1017.8 1017.8 5.2
20/06:30am 11.8 12.0 10.6 92 0.6 CALM 0 0 0 0 1017.5 1017.5 5.2
20/06:00am 8.9 8.4 7.9 93 0.5 CALM 0 0 0 0 1017.1 1017.1 5.2
20/05:30am 9.5 9.1 8.3 92 0.6 CALM 0 0 0 0 1016.8 1016.8 5.2
20/05:00am 10.8 10.3 9.2 90 0.8 SSE 2 7 1 4 1016.4 1016.4 5.2
20/04:30am 11.7 9.9 9.3 85 1.2 SSE 9 15 5 8 1016.1 1016.1 5.2
20/04:00am 11.8 10.0 9.6 86 1.1 S 9 15 5 8 1016.2 1016.2 5.2
20/03:30am 11.1 9.8 9.9 92 0.6 SSW 7 9 4 5 1016.1 1016.1 5.2
20/03:00am 10.3 8.8 9.1 92 0.6 S 7 9 4 5 1016.0 1016.0 5.2
20/02:30am 10.9 9.4 9.3 90 0.8 SSE 7 11 4 6 1015.9 1015.9 5.2
20/02:00am 11.5 11.1 9.9 90 0.8 S 2 7 1 4 1015.7 1015.7 5.2
20/01:30am 11.6 10.5 9.8 89 0.9 SSW 6 7 3 4 1015.9 1015.9 5.2
20/01:00am 11.8 9.6 9.4 85 1.2 S 11 17 6 9 1016.2 1016.2 5.2
20/12:30am 12.0 9.8 9.4 84 1.3 S 11 15 6 8 1016.5 1016.5 5.2
20/12:00am 12.0 9.9 9.6 85 1.2 S 11 13 6 7 1016.7 1016.7 5.2
 
Date/Time
WST
Temp
°C
App
Temp
°C
Dew
Point
Rel
Hum
%
Delta-T
°C
Wind Press
QNH
hPa
Press
MSL
hPa
Rain
since 9 am
mm
Dir
 
Spd
km/h
Gust
km/h
Spd
kts
Gust
kts
19/11:30pm 12.2 9.6 9.2 82 1.5 S 13 17 7 9 1016.7 1016.7 5.2
19/11:00pm 12.0 9.5 9.6 85 1.2 SW 13 17 7 9 1016.9 1016.9 5.2
19/10:30pm 11.7 9.9 9.5 86 1.1 SW 9 13 5 7 1016.8 1016.8 5.2
19/10:00pm 12.1 10.4 9.7 85 1.2 SSW 9 15 5 8 1016.8 1016.8 5.2
19/09:30pm 12.6 10.5 9.7 82 1.5 SSW 11 13 6 7 1016.9 1016.9 5.2
19/09:00pm 13.3 11.3 10.0 80 1.7 SSW 11 15 6 8 1016.9 1016.9 5.2
19/08:30pm 13.0 11.4 10.1 82 1.5 S 9 13 5 7 1016.7 1016.7 5.2
19/08:00pm 12.9 11.6 10.0 82 1.5 S 7 9 4 5 1016.6 1016.6 5.2
19/07:30pm 14.0 10.7 9.7 75 2.2 S 17 22 9 12 1016.2 1016.2 5.2
19/07:00pm 14.4 12.0 10.0 75 2.3 S 13 19 7 10 1015.7 1015.7 5.2
19/06:30pm 15.3 11.7 9.9 70 2.8 SE 19 22 10 12 1015.0 1015.0 5.2
19/06:00pm 16.0 13.3 10.3 69 3.0 SE 15 22 8 12 1014.7 1014.7 5.2
19/05:30pm 16.2 12.5 10.3 68 3.1 SSE 20 26 11 14 1014.6 1014.6 5.2
19/05:00pm 16.6 12.2 10.4 67 3.3 SSE 24 33 13 18 1014.4 1014.4 5.2
19/04:30pm 17.8 13.5 10.7 63 3.8 SSE 24 33 13 18 1014.1 1014.0 5.2
19/04:00pm 17.2 11.6 10.2 63 3.7 SE 30 39 16 21 1014.1 1014.0 5.2
19/03:30pm 18.4 13.0 11.0 62 4.0 SSE 30 39 16 21 1013.5 1013.4 5.2
19/03:00pm 17.7 13.2 12.5 71 2.9 SSE 28 41 15 22 1013.6 1013.5 5.2
19/02:30pm 17.3 12.7 12.2 72 2.8 SSE 28 37 15 20 1013.9 1013.8 5.2
19/02:00pm 17.7 14.4 14.0 79 2.1 S 24 35 13 19 1014.2 1014.1 5.2
19/01:53pm 17.3 13.6 14.0 81 1.9 SSE 26 35 14 19 1014.3 1014.3 5.2
19/01:30pm 16.5 14.1 14.4 87 1.2 S 20 28 11 15 1014.6 1014.6 5.2
19/01:16pm 15.7 13.3 13.7 88 1.1 S 19 26 10 14 1014.8 1014.8 5.2
19/01:00pm 15.7 13.8 14.1 90 0.9 S 17 22 9 12 1015.0 1015.0 5.2
19/12:30pm 14.0 12.4 12.9 93 0.6 SSW 13 17 7 9 1015.4 1015.4 5.2
19/12:00pm 13.8 12.6 12.9 94 0.5 SSW 11 15 6 8 1015.7 1015.7 4.6
19/11:30am 13.8 12.2 12.9 94 0.5 S 13 19 7 10 1015.9 1015.9 4.0
19/11:00am 13.6 11.9 12.5 93 0.6 S 13 17 7 9 1016.2 1016.2 3.2
19/10:30am 13.7 12.3 12.2 91 0.8 S 11 15 6 8 1016.4 1016.4 2.0
19/10:00am 13.8 12.2 11.7 87 1.1 S 11 17 6 9 1016.3 1016.3 0.2
19/09:30am 14.4 11.8 12.0 85 1.3 SE 17 22 9 12 1016.1 1016.1 0.2
19/09:00am 14.7 11.9 11.5 81 1.7 SE 17 24 9 13 1015.9 1015.9 7.8
19/08:30am 14.2 12.7 12.0 87 1.2 SSE 11 20 6 11 1015.7 1015.7 7.8
19/08:00am 13.9 11.1 11.3 84 1.4 SE 17 24 9 13 1015.7 1015.7 6.4
19/07:30am 14.4 10.4 10.4 77 2.1 SE 22 35 12 19 1015.7 1015.7 6.4
19/07:00am 14.4 11.1 10.8 79 1.9 ESE 19 28 10 15 1015.5 1015.5 6.4
19/06:30am 14.5 9.7 10.3 76 2.2 SE 26 35 14 19 1015.4 1015.4 6.4
19/06:00am 14.3 10.7 10.5 78 2.0 ESE 20 28 11 15 1015.3 1015.3 6.4
19/05:30am 14.4 10.7 10.0 75 2.3 SE 20 30 11 16 1015.1 1015.1 6.4
19/05:00am 14.3 10.2 10.1 76 2.2 SE 22 30 12 16 1015.1 1015.1 6.4
19/04:30am 14.2 10.8 10.4 78 2.0 SE 19 28 10 15 1014.9 1014.9 6.4
19/04:00am 14.4 10.7 10.2 76 2.2 SE 20 28 11 15 1014.7 1014.7 6.4
19/03:30am 14.3 10.7 10.5 78 2.0 SSE 20 26 11 14 1014.6 1014.6 6.4
19/03:00am 14.5 10.8 10.3 76 2.2 SE 20 30 11 16 1014.8 1014.8 6.4
19/02:30am 14.5 11.0 10.3 76 2.2 ESE 19 26 10 14 1014.8 1014.8 6.4
19/02:00am 14.6 9.8 10.2 75 2.3 ESE 26 35 14 19 1014.5 1014.5 6.4
19/01:30am 14.2 11.2 10.8 80 1.8 ESE 17 22 9 12 1015.1 1015.1 6.4
19/01:00am 14.2 10.2 10.6 79 1.9 ESE 22 35 12 19 1015.3 1015.3 6.4
19/12:30am 14.2 9.5 10.6 79 1.9 ESE 26 35 14 19 1015.5 1015.5 6.4
19/12:00am 14.4 10.8 10.4 77 2.1 ESE 20 28 11 15 1015.5 1015.5 6.4
 
Date/Time
WST
Temp
°C
App
Temp
°C
Dew
Point
Rel
Hum
%
Delta-T
°C
Wind Press
QNH
hPa
Press
MSL
hPa
Rain
since 9 am
mm
Dir
 
Spd
km/h
Gust
km/h
Spd
kts
Gust
kts
18/11:30pm 14.0 11.0 10.8 81 1.7 ESE 17 26 9 14 1015.7 1015.7 6.4
18/11:00pm 13.9 10.0 10.9 82 1.6 ESE 22 35 12 19 1015.4 1015.4 6.4

Other Formats:

Comma delimited format used in spreadsheet applications
http://www.bom.gov.au/fwo/IDW60801/IDW60801.94609.axf

JavaScript Object Notation format (JSON) in row-major order
http://www.bom.gov.au/fwo/IDW60801/IDW60801.94609.json